Time;durP1;ratioP1;P1;durP2;ratioP2;P2;SDS_P1;SDS_P2;PMS_P1;PMS_P2;Temp;Humidity;BMP_temperature;BMP_pressure;BME280_temperature;BME280_humidity;BME280_pressure;Samples;Min_cycle;Max_cycle;Signal;HPM_P1;HPM_P2
2024/04/13 00:03:05;;;;;;;0.50;0.50;;;13.80;86.50;;;;;;11319200;26;20228;-77
2024/04/13 00:08:09;;;;;;;0.50;0.50;;;13.80;86.60;;;;;;11350416;26;20225;-77
2024/04/13 00:13:14;;;;;;;0.50;0.50;;;13.70;86.80;;;;;;11350360;26;20232;-77
2024/04/13 00:18:21;;;;;;;0.50;0.50;;;13.70;87.00;;;;;;11342934;26;20806;-77
2024/04/13 00:23:25;;;;;;;0.50;0.50;;;13.60;87.00;;;;;;11347532;26;20280;-77
2024/04/13 00:28:30;;;;;;;0.50;0.50;;;13.60;87.20;;;;;;11349460;26;20349;-77
2024/04/13 00:33:38;;;;;;;0.60;0.60;;;13.60;87.20;;;;;;11349330;26;20656;-77
2024/04/13 00:38:42;;;;;;;0.60;0.60;;;13.50;87.50;;;;;;11357132;26;20610;-77
2024/04/13 00:43:46;;;;;;;0.50;0.50;;;13.50;87.90;;;;;;11358282;26;20646;-77
2024/04/13 00:48:53;;;;;;;0.53;0.53;;;13.40;88.20;;;;;;11357256;26;20240;-77
2024/04/13 00:53:59;;;;;;;0.60;0.60;;;13.40;88.20;;;;;;11356083;26;20229;-76
2024/04/13 00:59:05;;;;;;;0.67;0.67;;;13.40;88.20;;;;;;11354139;26;20232;-77
2024/04/13 01:04:13;;;;;;;0.50;0.50;;;13.40;88.30;;;;;;11321768;26;20241;-77
2024/04/13 01:09:20;;;;;;;0.60;0.60;;;13.30;88.20;;;;;;11360595;26;20259;-77
2024/04/13 01:14:24;;;;;;;0.60;0.60;;;13.30;88.40;;;;;;11359988;26;20334;-77
2024/04/13 01:19:31;;;;;;;0.50;0.50;;;13.30;88.70;;;;;;11358206;26;20225;-77
2024/04/13 01:24:40;;;;;;;0.60;0.60;;;13.30;88.90;;;;;;11357068;26;20645;-78
2024/04/13 01:29:45;;;;;;;0.60;0.60;;;13.20;88.90;;;;;;11357322;26;20241;-77
2024/04/13 01:34:49;;;;;;;0.60;0.60;;;13.20;88.80;;;;;;11356928;26;20757;-78
2024/04/13 01:39:56;;;;;;;0.60;0.60;;;13.20;89.00;;;;;;11324336;26;20345;-77
2024/04/13 01:45:00;;;;;;;0.50;0.50;;;13.10;89.00;;;;;;11356453;26;20269;-78
2024/04/13 01:50:04;;;;;;;0.60;0.60;;;13.10;89.20;;;;;;11354466;26;20240;-77
2024/04/13 01:55:11;;;;;;;0.80;0.80;;;13.10;89.10;;;;;;11353264;26;20332;-77
2024/04/13 02:00:15;;;;;;;0.87;0.87;;;13.00;89.10;;;;;;11355466;26;20301;-77
2024/04/13 02:05:19;;;;;;;0.80;0.80;;;13.00;89.40;;;;;;11355524;26;20753;-77
2024/04/13 02:10:26;;;;;;;0.80;0.80;;;12.90;89.50;;;;;;11354894;26;20681;-77
2024/04/13 02:15:30;;;;;;;0.80;0.80;;;12.90;90.00;;;;;;11354122;26;20271;-77
2024/04/13 02:20:34;;;;;;;0.90;0.90;;;12.90;90.10;;;;;;11354599;26;20811;-77
2024/04/13 02:25:44;;;;;;;0.90;0.90;;;12.90;90.00;;;;;;11353746;26;20271;-77
2024/04/13 02:30:48;;;;;;;0.80;0.80;;;12.90;90.00;;;;;;11353794;26;20333;-77
2024/04/13 02:36:00;;;;;;;1.10;1.10;;;12.90;90.10;;;;;;11353059;26;20259;-77
2024/04/13 02:41:06;;;;;;;1.10;1.10;;;12.80;90.30;;;;;;11322051;26;20750;-78
2024/04/13 02:46:12;;;;;;;0.60;0.60;;;12.80;90.40;;;;;;11338689;26;20332;-77
2024/04/13 02:51:16;;;;;;;0.90;0.90;;;12.80;90.40;;;;;;11353440;26;20233;-77
2024/04/13 02:56:24;;;;;;;0.80;0.80;;;12.80;90.50;;;;;;11338486;26;20325;-77
2024/04/13 03:01:28;;;;;;;1.00;1.00;;;12.80;90.60;;;;;;11354364;26;20233;-77
2024/04/13 03:06:32;;;;;;;1.07;1.07;;;12.80;90.60;;;;;;11353753;26;20245;-77
2024/04/13 03:11:38;;;;;;;0.90;0.90;;;12.80;90.60;;;;;;11354428;26;20245;-77
2024/04/13 03:16:43;;;;;;;0.70;0.70;;;12.80;90.70;;;;;;11352379;26;20329;-77
2024/04/13 03:21:48;;;;;;;0.70;0.70;;;12.80;90.60;;;;;;11352546;26;20255;-77
2024/04/13 03:26:54;;;;;;;0.70;0.70;;;12.70;90.60;;;;;;11352484;26;20225;-77
2024/04/13 03:31:58;;;;;;;0.80;0.80;;;12.70;90.70;;;;;;11352286;26;20241;-77
2024/04/13 03:37:02;;;;;;;1.00;1.00;;;12.60;90.70;;;;;;11351069;26;20229;-77
2024/04/13 03:42:09;;;;;;;1.00;1.00;;;12.60;90.80;;;;;;11351852;26;20268;-77
2024/04/13 03:47:13;;;;;;;1.00;1.00;;;12.60;90.90;;;;;;11318872;26;20632;-77
2024/04/13 03:52:17;;;;;;;1.07;1.07;;;12.50;91.00;;;;;;11350992;26;20259;-77
2024/04/13 03:57:24;;;;;;;0.83;0.83;;;12.50;91.00;;;;;;11350339;26;20329;-77
2024/04/13 04:02:28;;;;;;;0.70;0.70;;;12.40;91.00;;;;;;11350612;26;20344;-77
2024/04/13 04:07:34;;;;;;;1.00;1.00;;;12.40;91.10;;;;;;11339078;26;20240;-77
2024/04/13 04:12:41;;;;;;;0.70;0.70;;;12.30;91.00;;;;;;11355388;26;20267;-77
2024/04/13 04:17:45;;;;;;;0.80;0.80;;;12.30;91.00;;;;;;11357186;26;20232;-77
2024/04/13 04:22:50;;;;;;;0.87;0.87;;;12.30;91.20;;;;;;11356754;26;20224;-77
2024/04/13 04:27:57;;;;;;;1.00;1.00;;;12.20;91.30;;;;;;11356797;26;20260;-77
2024/04/13 04:33:02;;;;;;;0.80;0.80;;;12.20;91.30;;;;;;11357761;26;20814;-77
2024/04/13 04:38:06;;;;;;;0.70;0.70;;;12.20;91.40;;;;;;11356953;26;20236;-77
2024/04/13 04:43:14;;;;;;;0.80;0.80;;;12.20;91.40;;;;;;11356648;26;20325;-77
2024/04/13 04:48:18;;;;;;;0.70;0.70;;;12.20;91.50;;;;;;11340838;26;20710;-77
2024/04/13 04:53:22;;;;;;;0.70;0.70;;;12.20;91.50;;;;;;11355806;26;20267;-77
2024/04/13 04:58:28;;;;;;;1.00;1.00;;;12.30;91.60;;;;;;11355235;26;20244;-77
2024/04/13 05:03:32;;;;;;;0.80;0.80;;;12.30;91.50;;;;;;11354953;26;20380;-77
2024/04/13 05:08:37;;;;;;;1.00;1.00;;;12.30;91.70;;;;;;11355478;26;20279;-77
2024/04/13 05:13:43;;;;;;;0.80;0.80;;;12.30;91.80;;;;;;11356964;26;21220;-77
2024/04/13 05:18:47;;;;;;;0.70;0.70;;;12.40;91.80;;;;;;11356343;26;20792;-77
2024/04/13 05:23:51;;;;;;;0.70;0.70;;;12.40;91.80;;;;;;11354006;26;20602;-77
2024/04/13 05:28:58;;;;;;;0.80;0.80;;;12.40;91.80;;;;;;11355087;26;20244;-77
2024/04/13 05:34:02;;;;;;;1.00;1.00;;;12.40;91.90;;;;;;11354390;26;20271;-77
2024/04/13 05:39:07;;;;;;;0.80;0.80;;;12.40;91.80;;;;;;11323263;26;20349;-77
2024/04/13 05:44:14;;;;;;;0.90;0.90;;;12.50;91.90;;;;;;11355042;26;20240;-77
2024/04/13 05:49:17;;;;;;;0.90;0.90;;;12.50;92.00;;;;;;11322398;26;20644;-77
2024/04/13 05:54:21;;;;;;;0.80;0.80;;;12.50;92.00;;;;;;11354201;26;20236;-77
2024/04/13 05:59:28;;;;;;;0.87;0.87;;;12.60;92.00;;;;;;11321660;26;20328;-77
2024/04/13 06:04:32;;;;;;;0.60;0.60;;;12.60;91.90;;;;;;11353820;26;20244;-77
2024/04/13 06:09:36;;;;;;;0.90;0.90;;;12.60;91.70;;;;;;11353889;26;20241;-77
2024/04/13 06:14:43;;;;;;;0.70;0.70;;;12.70;91.70;;;;;;11353498;26;20293;-77
2024/04/13 06:19:47;;;;;;;0.90;0.90;;;12.80;91.80;;;;;;11353765;26;20727;-77
2024/04/13 06:24:51;;;;;;;0.90;0.90;;;12.80;91.80;;;;;;11321440;26;20321;-77
2024/04/13 06:29:58;;;;;;;0.90;0.90;;;12.80;91.80;;;;;;11352890;26;20237;-77
2024/04/13 06:35:02;;;;;;;0.60;0.60;;;12.90;91.80;;;;;;11353292;26;20687;-77
2024/04/13 06:40:07;;;;;;;1.00;1.00;;;13.00;91.90;;;;;;11321093;26;20240;-77
2024/04/13 06:45:14;;;;;;;0.70;0.70;;;13.10;91.90;;;;;;11352987;26;20237;-77
2024/04/13 06:50:18;;;;;;;0.77;0.77;;;13.30;91.80;;;;;;11352554;26;20275;-77
2024/04/13 06:55:22;;;;;;;0.70;0.70;;;13.50;91.80;;;;;;11338498;26;20237;-77
2024/04/13 07:00:29;;;;;;;0.77;0.77;;;13.60;91.60;;;;;;11352264;26;20241;-77
2024/04/13 07:05:33;;;;;;;0.60;0.60;;;13.80;91.50;;;;;;11320042;26;20767;-77
2024/04/13 07:10:37;;;;;;;0.70;0.70;;;13.90;91.60;;;;;;11352151;26;20328;-77
2024/04/13 07:15:43;;;;;;;0.80;0.80;;;14.00;91.70;;;;;;11352218;26;20722;-77
2024/04/13 07:20:48;;;;;;;1.10;1.10;;;14.10;91.80;;;;;;11351985;26;20276;-77
2024/04/13 07:25:59;;;;;;;0.90;0.90;;;14.20;92.20;;;;;;11351514;26;20256;-77
2024/04/13 07:31:06;;;;;;;0.80;0.80;;;14.30;92.80;;;;;;11352073;26;20567;-77
2024/04/13 07:36:10;;;;;;;0.40;0.40;;;14.40;92.80;;;;;;11350939;26;20324;-77
2024/04/13 07:41:14;;;;;;;0.50;0.50;;;14.60;92.90;;;;;;11352661;26;20835;-77
2024/04/13 07:46:21;;;;;;;0.50;0.50;;;14.70;92.90;;;;;;11352470;26;20298;-77
2024/04/13 07:51:25;;;;;;;0.50;0.50;;;14.90;92.90;;;;;;11355527;26;20245;-77
2024/04/13 07:56:29;;;;;;;0.50;0.50;;;15.00;92.50;;;;;;11354158;26;20623;-77
2024/04/13 08:01:35;;;;;;;0.40;0.40;;;15.20;92.10;;;;;;11318223;26;20721;-77
2024/04/13 08:06:40;;;;;;;0.30;0.30;;;15.50;91.50;;;;;;11350099;26;20634;-77
2024/04/13 08:11:44;;;;;;;0.43;0.43;;;15.80;91.30;;;;;;11349774;26;20332;-77
2024/04/13 08:16:50;;;;;;;0.40;0.40;;;16.10;91.30;;;;;;11348634;26;20822;-77
2024/04/13 08:21:54;;;;;;;0.50;0.50;;;16.40;90.80;;;;;;11349265;26;20324;-77
2024/04/13 08:26:58;;;;;;;0.30;0.30;;;16.60;90.50;;;;;;11312062;26;20764;-77
2024/04/13 08:32:05;;;;;;;0.40;0.40;;;16.80;90.20;;;;;;11316777;26;20817;-77
2024/04/13 08:37:09;;;;;;;0.60;0.60;;;17.00;90.00;;;;;;11348011;26;20733;-78
2024/04/13 08:42:14;;;;;;;0.50;0.50;;;17.20;89.80;;;;;;11349036;26;20584;-77
2024/04/13 08:47:21;;;;;;;0.60;0.60;;;17.30;89.90;;;;;;11348564;26;20259;-77
2024/04/13 08:52:25;;;;;;;0.40;0.40;;;17.40;89.60;;;;;;11349010;26;20240;-77
2024/04/13 08:57:33;;;;;;;0.50;0.50;;;17.60;89.50;;;;;;11347567;26;20237;-77
2024/04/13 09:02:41;;;;;;;0.60;0.60;;;17.80;89.60;;;;;;11355806;26;20628;-77
2024/04/13 09:07:48;;;;;;;0.60;0.60;;;18.00;86.50;;;;;;11339653;20;20309;-80
2024/04/13 09:12:54;;;;;;;0.57;0.57;;;18.10;87.70;;;;;;11231573;26;20222;-79
2024/04/13 09:18:02;;;;;;;0.50;0.50;;;18.20;87.60;;;;;;11232702;26;20250;-79
2024/04/13 09:23:07;;;;;;;0.60;0.60;;;18.30;87.70;;;;;;11259176;26;20226;-79
2024/04/13 09:28:12;;;;;;;0.60;0.60;;;18.50;85.70;;;;;;11215005;26;20338;-77
2024/04/13 09:33:19;;;;;;;0.50;0.50;;;18.80;85.50;;;;;;11237925;26;20242;-78
2024/04/13 09:38:23;;;;;;;0.70;0.70;;;19.10;85.70;;;;;;11206639;26;20230;-78
2024/04/13 09:43:27;;;;;;;0.80;0.80;;;19.40;85.40;;;;;;11250020;26;20684;-79
2024/04/13 09:48:34;;;;;;;0.60;0.60;;;19.70;85.30;;;;;;11236601;26;20277;-79
2024/04/13 09:53:38;;;;;;;0.70;0.70;;;20.10;82.00;;;;;;11249939;26;20770;-80
2024/04/13 09:58:43;;;;;;;0.60;0.60;;;20.50;83.60;;;;;;11252057;26;20690;-79
2024/04/13 10:03:50;;;;;;;0.90;0.90;;;20.90;79.80;;;;;;11254927;26;20257;-77
2024/04/13 10:08:54;;;;;;;0.70;0.70;;;21.20;79.70;;;;;;11248419;26;20243;-77
2024/04/13 10:13:59;;;;;;;0.80;0.80;;;21.50;78.10;;;;;;11249861;26;20613;-78
2024/04/13 10:19:07;;;;;;;0.80;0.80;;;21.50;78.10;;;;;;11260186;26;20333;-78
2024/04/13 10:24:17;;;;;;;0.67;0.67;;;21.30;79.50;;;;;;11255968;26;20242;-78
2024/04/13 10:29:27;;;;;;;0.90;0.90;;;21.10;80.70;;;;;;11247241;26;20234;-78
2024/04/13 10:34:34;;;;;;;0.60;0.60;;;21.00;81.30;;;;;;11245821;26;20333;-78
2024/04/13 10:39:38;;;;;;;0.90;0.90;;;20.90;80.40;;;;;;11246122;26;20747;-77
2024/04/13 10:44:43;;;;;;;0.90;0.90;;;20.90;80.60;;;;;;11248600;26;20238;-78
2024/04/13 10:49:52;;;;;;;0.60;0.60;;;20.70;81.00;;;;;;11229894;26;20234;-78
2024/04/13 10:54:59;;;;;;;0.60;0.60;;;20.70;80.40;;;;;;11236995;26;20663;-78
2024/04/13 11:00:04;;;;;;;0.90;0.90;;;20.70;76.60;;;;;;11209809;26;20246;-78
2024/04/13 11:05:19;;;;;;;0.70;0.70;;;20.70;78.10;;;;;;11253127;26;20719;-77
2024/04/13 11:10:23;;;;;;;0.90;0.90;;;20.70;78.50;;;;;;11218854;26;20723;-77
2024/04/13 11:15:28;;;;;;;0.60;0.60;;;20.60;79.00;;;;;;11241760;26;20329;-78
2024/04/13 11:20:36;;;;;;;0.50;0.50;;;20.50;79.80;;;;;;11258732;26;20257;-78
2024/04/13 11:25:40;;;;;;;0.80;0.80;;;20.40;79.90;;;;;;11237634;26;20266;-77
2024/04/13 11:30:44;;;;;;;0.60;0.60;;;20.50;77.40;;;;;;11243096;26;20246;-77
2024/04/13 11:35:59;;;;;;;0.63;0.63;;;20.70;76.50;;;;;;11248168;26;20268;-78
2024/04/13 11:41:03;;;;;;;0.70;0.70;;;20.70;77.90;;;;;;11221786;26;20265;-78
2024/04/13 11:46:07;;;;;;;0.70;0.70;;;20.60;79.20;;;;;;11214202;26;20242;-79
2024/04/13 11:51:13;;;;;;;0.50;0.50;;;20.50;79.30;;;;;;11219087;26;20347;-78
2024/04/13 11:56:17;;;;;;;0.50;0.50;;;20.50;79.80;;;;;;11222714;26;20230;-80
2024/04/13 12:01:22;;;;;;;0.60;0.60;;;20.50;79.00;;;;;;11237880;26;20277;-78
2024/04/13 12:06:29;;;;;;;0.50;0.50;;;20.50;78.90;;;;;;11238014;26;20306;-79
2024/04/13 12:11:34;;;;;;;0.63;0.63;;;20.50;78.20;;;;;;11234246;26;20242;-79
2024/04/13 12:16:39;;;;;;;0.60;0.60;;;20.50;79.30;;;;;;11242398;26;20234;-78
2024/04/13 12:21:45;;;;;;;0.50;0.50;;;20.40;80.00;;;;;;11244664;26;20238;-78
2024/04/13 12:26:50;;;;;;;0.50;0.50;;;20.50;79.80;;;;;;11234683;26;20311;-77
2024/04/13 12:31:54;;;;;;;0.60;0.60;;;20.60;79.20;;;;;;11228242;26;20241;-79
2024/04/13 12:37:01;;;;;;;0.60;0.60;;;20.70;79.30;;;;;;11249360;26;20269;-79
2024/04/13 12:42:05;;;;;;;0.40;0.40;;;20.70;79.50;;;;;;11196618;26;20407;-79
2024/04/13 12:47:14;;;;;;;0.50;0.50;;;20.60;80.60;;;;;;11197195;26;20278;-78
2024/04/13 12:52:21;;;;;;;0.60;0.60;;;20.50;79.50;;;;;;11184345;26;20243;-79
2024/04/13 12:57:25;;;;;;;0.50;0.50;;;20.50;79.20;;;;;;11183219;26;20231;-77
2024/04/13 13:02:29;;;;;;;0.50;0.50;;;20.60;79.70;;;;;;11201298;26;20243;-78
2024/04/13 13:07:35;;;;;;;0.40;0.40;;;20.60;79.00;;;;;;11247117;26;20832;-79
2024/04/13 13:12:40;;;;;;;0.40;0.40;;;20.70;78.40;;;;;;11228380;26;20245;-77
2024/04/13 13:17:44;;;;;;;0.40;0.40;;;20.80;77.60;;;;;;11250390;26;20258;-79
2024/04/13 13:22:51;;;;;;;0.40;0.40;;;20.70;79.00;;;;;;11246615;26;20273;-77
2024/04/13 13:27:55;;;;;;;0.30;0.30;;;20.70;79.20;;;;;;11178520;26;20242;-77
2024/04/13 13:32:59;;;;;;;0.50;0.50;;;20.50;80.00;;;;;;11206773;26;20323;-78
2024/04/13 13:38:06;;;;;;;0.20;0.20;;;20.50;81.10;;;;;;11179555;26;20244;-78
2024/04/13 13:43:11;;;;;;;0.50;0.50;;;20.50;79.40;;;;;;11196907;26;20303;-77
2024/04/13 13:48:16;;;;;;;0.60;0.60;;;20.80;77.80;;;;;;11208290;26;20338;-79
2024/04/13 13:53:23;;;;;;;0.50;0.50;;;21.00;75.80;;;;;;11169440;26;20231;-78
2024/04/13 13:58:27;;;;;;;0.17;0.17;;;21.20;77.10;;;;;;11248169;26;20716;-79
2024/04/13 14:03:31;;;;;;;0.50;0.50;;;21.20;77.60;;;;;;11208348;26;20312;-79
2024/04/13 14:08:38;;;;;;;0.50;0.50;;;21.10;79.40;;;;;;11235775;26;20812;-79
2024/04/13 14:13:42;;;;;;;0.50;0.50;;;21.00;79.20;;;;;;11222975;26;20227;-79
2024/04/13 14:18:46;;;;;;;0.50;0.50;;;21.00;78.70;;;;;;11229182;26;20319;-78
2024/04/13 14:23:52;;;;;;;0.40;0.40;;;20.90;78.20;;;;;;11208751;26;20226;-78
2024/04/13 14:28:56;;;;;;;0.40;0.40;;;21.00;76.40;;;;;;11225560;26;20239;-79
2024/04/13 14:34:00;;;;;;;0.60;0.60;;;21.00;77.80;;;;;;11182285;26;20321;-77
2024/04/13 14:39:07;;;;;;;0.77;0.77;;;20.90;78.70;;;;;;11236333;26;20246;-77
2024/04/13 14:44:11;;;;;;;0.40;0.40;;;20.90;78.10;;;;;;11194648;26;20227;-77
2024/04/13 14:49:15;;;;;;;0.50;0.50;;;20.80;79.40;;;;;;11177777;26;20357;-77
2024/04/13 14:54:22;;;;;;;0.50;0.50;;;20.80;80.20;;;;;;11218735;26;20227;-79
2024/04/13 14:59:26;;;;;;;0.50;0.50;;;20.70;79.60;;;;;;11177223;26;20247;-77
2024/04/13 15:04:30;;;;;;;0.50;0.50;;;20.70;80.00;;;;;;11229532;26;20239;-77
2024/04/13 15:09:37;;;;;;;0.40;0.40;;;20.70;80.90;;;;;;11244160;20;20666;-76
2024/04/13 15:14:41;;;;;;;0.60;0.60;;;20.70;78.90;;;;;;11141706;26;20596;-76
2024/04/13 15:19:45;;;;;;;0.50;0.50;;;20.80;80.10;;;;;;11128052;26;20248;-76
2024/04/13 15:24:52;;;;;;;0.40;0.40;;;21.00;80.20;;;;;;11127908;26;20669;-77
2024/04/13 15:29:56;;;;;;;0.50;0.50;;;21.00;80.70;;;;;;11107986;26;20733;-77
2024/04/13 15:35:01;;;;;;;0.47;0.47;;;21.10;80.10;;;;;;11108842;26;20236;-76
2024/04/13 15:40:09;;;;;;;0.30;0.30;;;21.10;80.40;;;;;;11108758;26;20701;-77
2024/04/13 15:45:14;;;;;;;0.40;0.40;;;21.10;80.80;;;;;;11109028;26;20240;-77
2024/04/13 15:50:18;;;;;;;0.50;0.50;;;20.90;82.00;;;;;;11112739;26;20275;-77
2024/04/13 15:55:24;;;;;;;0.60;0.60;;;20.80;82.50;;;;;;11134503;26;20224;-77
2024/04/13 16:00:28;;;;;;;0.50;0.50;;;20.70;82.60;;;;;;11109357;26;20688;-77
2024/04/13 16:05:32;;;;;;;0.60;0.60;;;20.70;83.00;;;;;;11107515;26;20240;-77
2024/04/13 16:10:39;;;;;;;0.50;0.50;;;20.60;83.40;;;;;;11114087;26;20247;-77
2024/04/13 16:15:43;;;;;;;0.50;0.50;;;20.50;84.40;;;;;;11114795;26;20826;-79
2024/04/13 16:20:47;;;;;;;0.60;0.60;;;20.50;83.20;;;;;;11118621;26;20271;-78
2024/04/13 16:25:54;;;;;;;0.50;0.50;;;20.40;84.20;;;;;;11131751;26;20665;-77
2024/04/13 16:31:00;;;;;;;0.50;0.50;;;20.30;85.10;;;;;;11117038;26;20630;-78
2024/04/13 16:36:04;;;;;;;0.57;0.57;;;20.40;84.30;;;;;;11114333;26;20240;-78
2024/04/13 16:41:11;;;;;;;0.60;0.60;;;20.40;85.20;;;;;;11117597;26;20317;-78
2024/04/13 16:46:14;;;;;;;0.50;0.50;;;20.30;85.60;;;;;;11115872;26;20316;-78
2024/04/13 16:51:18;;;;;;;0.50;0.50;;;20.20;85.10;;;;;;11126600;26;20319;-78
2024/04/13 16:56:25;;;;;;;0.40;0.40;;;20.20;85.10;;;;;;11147803;26;20290;-78
2024/04/13 17:01:29;;;;;;;0.40;0.40;;;20.20;85.40;;;;;;11115711;26;20275;-78
2024/04/13 17:06:34;;;;;;;0.60;0.60;;;20.10;85.70;;;;;;11113858;26;20279;-78
2024/04/13 17:11:40;;;;;;;0.70;0.70;;;20.20;85.40;;;;;;11117085;26;20770;-78
2024/04/13 17:16:44;;;;;;;0.60;0.60;;;20.10;86.10;;;;;;11114721;26;20221;-78
2024/04/13 17:21:48;;;;;;;0.70;0.70;;;20.00;87.10;;;;;;11114327;26;20228;-78
2024/04/13 17:26:55;;;;;;;0.90;0.90;;;19.90;88.10;;;;;;11170365;26;20262;-78
2024/04/13 17:31:59;;;;;;;0.50;0.50;;;19.70;89.10;;;;;;11186975;26;20262;-78
2024/04/13 17:37:04;;;;;;;0.60;0.60;;;19.60;89.90;;;;;;11143228;26;20259;-78
2024/04/13 17:42:11;;;;;;;0.60;0.60;;;19.50;90.30;;;;;;11114977;26;20228;-78
2024/04/13 17:47:16;;;;;;;0.70;0.70;;;19.30;90.70;;;;;;11118794;26;20248;-78
2024/04/13 17:52:20;;;;;;;0.43;0.43;;;19.20;90.90;;;;;;11122134;26;20261;-78
2024/04/13 17:57:29;;;;;;;0.63;0.63;;;19.30;91.70;;;;;;11134626;26;20784;-78
2024/04/13 18:02:33;;;;;;;0.50;0.50;;;19.50;91.70;;;;;;11120359;26;20240;-78
2024/04/13 18:07:37;;;;;;;0.70;0.70;;;19.60;91.70;;;;;;11115503;26;20240;-78
2024/04/13 18:12:44;;;;;;;0.50;0.50;;;19.80;91.60;;;;;;11114936;26;20358;-77
2024/04/13 18:17:47;;;;;;;0.60;0.60;;;19.90;91.60;;;;;;11117978;26;20236;-78
2024/04/13 18:22:51;;;;;;;0.60;0.60;;;19.90;91.60;;;;;;11119091;26;20236;-78
2024/04/13 18:27:58;;;;;;;0.70;0.70;;;19.90;91.60;;;;;;11123429;26;20608;-78
2024/04/13 18:33:02;;;;;;;0.50;0.50;;;19.80;91.70;;;;;;11118152;26;20232;-78
2024/04/13 18:38:07;;;;;;;0.50;0.50;;;19.70;91.80;;;;;;11116861;26;20245;-79
2024/04/13 18:43:14;;;;;;;0.33;0.33;;;19.60;91.90;;;;;;11118148;26;20244;-78
2024/04/13 18:48:18;;;;;;;0.80;0.80;;;19.60;92.00;;;;;;11118521;26;20236;-78
2024/04/13 18:53:22;;;;;;;0.80;0.80;;;19.50;92.20;;;;;;11179626;26;20721;-78
2024/04/13 18:58:29;;;;;;;0.30;0.30;;;19.40;92.40;;;;;;11131813;26;20283;-78
2024/04/13 19:03:33;;;;;;;0.60;0.60;;;19.30;92.60;;;;;;11120235;26;20306;-78
2024/04/13 19:08:37;;;;;;;0.60;0.60;;;19.20;92.70;;;;;;11118706;26;20237;-78
2024/04/13 19:13:43;;;;;;;0.47;0.47;;;19.20;92.90;;;;;;11116981;26;20353;-78
2024/04/13 19:18:47;;;;;;;0.60;0.60;;;19.00;93.00;;;;;;11116952;26;20616;-78
2024/04/13 19:23:51;;;;;;;0.50;0.50;;;18.90;93.20;;;;;;11123791;26;20263;-77
2024/04/13 19:28:58;;;;;;;0.60;0.60;;;18.80;93.30;;;;;;11120223;26;20960;-77
2024/04/13 19:34:04;;;;;;;0.40;0.40;;;18.70;93.50;;;;;;11119353;26;20305;-77
2024/04/13 19:39:09;;;;;;;0.10;0.10;;;18.60;93.80;;;;;;11113264;26;20236;-78
2024/04/13 19:44:16;;;;;;;0.80;0.80;;;18.60;94.00;;;;;;11114324;26;20732;-78
2024/04/13 19:49:20;;;;;;;0.50;0.50;;;18.50;94.10;;;;;;11162579;26;20309;-77
2024/04/13 19:54:24;;;;;;;0.57;0.57;;;18.40;94.30;;;;;;11153732;26;20630;-77
2024/04/13 19:59:32;;;;;;;0.60;0.60;;;18.40;94.80;;;;;;11115409;26;20244;-77
2024/04/13 20:04:36;;;;;;;0.40;0.40;;;18.30;94.90;;;;;;11119251;26;20240;-77
2024/04/13 20:09:40;;;;;;;0.50;0.50;;;18.30;94.70;;;;;;11127637;26;20271;-76
2024/04/13 20:18:40;;;;;;;0.60;0.60;;;18.30;94.90;;;;;;11114114;26;20236;-77
2024/04/13 20:20:11;;;;;;;0.70;0.70;;;18.20;95.00;;;;;;11111931;26;20359;-77
2024/04/13 20:25:17;;;;;;;0.60;0.60;;;18.20;95.10;;;;;;11131666;26;20235;-77
2024/04/13 20:30:24;;;;;;;0.40;0.40;;;18.10;95.10;;;;;;11183722;26;20824;-77
2024/04/13 20:35:28;;;;;;;0.60;0.60;;;18.10;95.20;;;;;;11168540;26;20248;-77
2024/04/13 20:40:32;;;;;;;0.60;0.60;;;18.00;95.20;;;;;;11169111;26;20243;-77
2024/04/13 20:45:39;;;;;;;0.40;0.40;;;17.90;95.30;;;;;;11156896;26;20244;-77
2024/04/13 20:50:43;;;;;;;0.50;0.50;;;17.90;95.40;;;;;;11163533;26;20244;-77
2024/04/13 20:55:47;;;;;;;0.63;0.63;;;17.80;95.50;;;;;;11136102;26;20279;-77
2024/04/13 21:00:58;;;;;;;0.13;0.13;;;17.80;95.60;;;;;;11166773;26;20273;-77
2024/04/13 21:06:10;;;;;;;0.40;0.40;;;17.70;95.70;;;;;;11171542;26;20235;-77
2024/04/13 21:11:14;;;;;;;0.50;0.50;;;17.70;95.80;;;;;;11182649;26;20291;-77
2024/04/13 21:16:23;;;;;;;0.50;0.50;;;17.60;95.90;;;;;;11200603;21;20335;-79
2024/04/13 21:21:27;;;;;;;0.50;0.50;;;17.50;95.90;;;;;;11177627;26;20266;-80
2024/04/13 21:26:31;;;;;;;0.47;0.47;;;17.50;96.10;;;;;;11138544;26;20348;-76
2024/04/13 21:31:38;;;;;;;0.30;0.30;;;17.40;96.10;;;;;;11173087;26;20243;-78
2024/04/13 21:36:42;;;;;;;0.40;0.40;;;17.40;96.20;;;;;;11177627;26;20240;-78
2024/04/13 21:41:46;;;;;;;0.50;0.50;;;17.40;96.30;;;;;;11148056;26;20239;-78
2024/04/13 21:46:53;;;;;;;0.40;0.40;;;17.40;96.40;;;;;;11124877;26;20244;-77
2024/04/13 21:51:57;;;;;;;0.40;0.40;;;17.30;96.30;;;;;;11146723;26;20244;-79
2024/04/13 21:57:01;;;;;;;0.40;0.40;;;17.30;96.30;;;;;;11170073;26;20239;-79
2024/04/13 22:02:10;;;;;;;0.50;0.50;;;17.30;96.20;;;;;;11117461;26;20630;-79
2024/04/13 22:07:14;;;;;;;0.50;0.50;;;17.30;96.30;;;;;;11135922;26;20243;-79
2024/04/13 22:12:18;;;;;;;0.50;0.50;;;17.20;96.30;;;;;;11120162;26;20262;-80
2024/04/13 22:17:25;;;;;;;0.50;0.50;;;17.10;96.30;;;;;;11163569;26;20331;-77
2024/04/13 22:22:29;;;;;;;0.50;0.50;;;17.10;96.30;;;;;;11149517;26;20656;-78
2024/04/13 22:27:33;;;;;;;0.40;0.40;;;17.00;96.30;;;;;;11158392;26;20825;-77
2024/04/13 22:32:39;;;;;;;0.60;0.60;;;17.00;96.30;;;;;;11176467;26;20260;-78
2024/04/13 22:37:43;;;;;;;0.40;0.40;;;16.90;96.20;;;;;;11136780;26;20252;-76
2024/04/13 22:42:47;;;;;;;0.50;0.50;;;16.90;96.10;;;;;;11117067;26;20236;-79
2024/04/13 22:47:54;;;;;;;0.40;0.40;;;16.80;96.00;;;;;;11149521;26;20329;-77
2024/04/13 22:52:58;;;;;;;0.50;0.50;;;16.80;96.30;;;;;;11139794;26;20239;-78
2024/04/13 22:58:02;;;;;;;0.40;0.40;;;16.70;95.80;;;;;;11156564;26;20235;-77
2024/04/13 23:03:09;;;;;;;0.50;0.50;;;16.70;95.70;;;;;;11160002;26;20239;-80
2024/04/13 23:08:13;;;;;;;0.40;0.40;;;16.70;95.50;;;;;;11185380;26;20308;-76
2024/04/13 23:13:17;;;;;;;0.50;0.50;;;16.60;95.20;;;;;;11162737;26;20783;-79
2024/04/13 23:18:23;;;;;;;0.40;0.40;;;16.60;95.00;;;;;;11131617;26;20319;-77
2024/04/13 23:23:27;;;;;;;0.50;0.50;;;16.60;94.70;;;;;;11114776;26;20236;-77
2024/04/13 23:28:31;;;;;;;0.53;0.53;;;16.60;94.50;;;;;;11182109;26;20391;-78
2024/04/13 23:33:38;;;;;;;0.30;0.30;;;16.60;94.40;;;;;;11159262;26;20341;-77
2024/04/13 23:38:42;;;;;;;0.40;0.40;;;16.50;94.00;;;;;;11142018;26;20233;-78
2024/04/13 23:43:48;;;;;;;0.40;0.40;;;16.50;93.70;;;;;;11150226;26;20239;-78
2024/04/13 23:48:54;;;;;;;0.40;0.40;;;16.40;93.40;;;;;;11153135;26;20246;-79
2024/04/13 23:53:58;;;;;;;0.30;0.30;;;16.40;92.90;;;;;;11136589;26;20244;-79
2024/04/13 23:59:03;;;;;;;0.40;0.40;;;16.40;92.80;;;;;;11125162;26;20227;-80
